sensor_id;sensor_type;location;lat;lon;timestamp;temperature;humidity
12006;DHT22;6062;47.294;12.182;2022-12-18T00:01:15;-2.80;40.60
12006;DHT22;6062;47.294;12.182;2022-12-18T00:03:43;-2.80;40.30
12006;DHT22;6062;47.294;12.182;2022-12-18T00:06:09;-2.80;40.60
12006;DHT22;6062;47.294;12.182;2022-12-18T00:08:35;-2.80;40.70
12006;DHT22;6062;47.294;12.182;2022-12-18T00:11:10;-2.80;40.50
12006;DHT22;6062;47.294;12.182;2022-12-18T00:13:37;-2.90;40.00
12006;DHT22;6062;47.294;12.182;2022-12-18T00:16:04;-2.90;39.80
12006;DHT22;6062;47.294;12.182;2022-12-18T00:18:41;-2.90;39.70
12006;DHT22;6062;47.294;12.182;2022-12-18T00:21:09;-2.90;39.90
12006;DHT22;6062;47.294;12.182;2022-12-18T00:23:37;-3.00;39.80
12006;DHT22;6062;47.294;12.182;2022-12-18T00:26:11;-2.90;39.80
12006;DHT22;6062;47.294;12.182;2022-12-18T00:28:51;-3.00;40.00
12006;DHT22;6062;47.294;12.182;2022-12-18T00:31:23;-3.00;40.40
12006;DHT22;6062;47.294;12.182;2022-12-18T00:33:50;-3.00;40.10
12006;DHT22;6062;47.294;12.182;2022-12-18T00:36:18;-3.10;40.30
12006;DHT22;6062;47.294;12.182;2022-12-18T00:38:46;-3.10;40.60
12006;DHT22;6062;47.294;12.182;2022-12-18T00:41:14;-3.10;40.60
12006;DHT22;6062;47.294;12.182;2022-12-18T00:44:05;-3.10;40.60
12006;DHT22;6062;47.294;12.182;2022-12-18T00:46:32;-3.10;40.70
12006;DHT22;6062;47.294;12.182;2022-12-18T00:48:58;-3.10;40.70
12006;DHT22;6062;47.294;12.182;2022-12-18T00:51:24;-3.10;40.90
12006;DHT22;6062;47.294;12.182;2022-12-18T00:53:52;-3.10;41.10
12006;DHT22;6062;47.294;12.182;2022-12-18T00:56:17;-3.00;41.10
12006;DHT22;6062;47.294;12.182;2022-12-18T00:58:43;-3.00;40.70
12006;DHT22;6062;47.294;12.182;2022-12-18T01:01:09;-3.00;40.40
12006;DHT22;6062;47.294;12.182;2022-12-18T01:03:35;-3.00;39.60
12006;DHT22;6062;47.294;12.182;2022-12-18T01:06:06;-3.00;39.90
12006;DHT22;6062;47.294;12.182;2022-12-18T01:08:34;-3.00;39.80
12006;DHT22;6062;47.294;12.182;2022-12-18T01:11:00;-3.00;39.60
12006;DHT22;6062;47.294;12.182;2022-12-18T01:13:26;-3.00;39.40
12006;DHT22;6062;47.294;12.182;2022-12-18T01:15:52;-3.10;39.30
12006;DHT22;6062;47.294;12.182;2022-12-18T01:18:18;-3.10;39.50
12006;DHT22;6062;47.294;12.182;2022-12-18T01:20:43;-3.10;39.60
12006;DHT22;6062;47.294;12.182;2022-12-18T01:23:09;-3.10;39.60
12006;DHT22;6062;47.294;12.182;2022-12-18T01:25:36;-3.10;39.60
12006;DHT22;6062;47.294;12.182;2022-12-18T01:28:02;-3.10;39.70
12006;DHT22;6062;47.294;12.182;2022-12-18T01:30:28;-3.20;39.60
12006;DHT22;6062;47.294;12.182;2022-12-18T01:32:54;-3.20;39.60
12006;DHT22;6062;47.294;12.182;2022-12-18T01:35:20;-3.20;39.50
12006;DHT22;6062;47.294;12.182;2022-12-18T01:37:46;-3.20;39.60
12006;DHT22;6062;47.294;12.182;2022-12-18T01:40:11;-3.20;39.60
12006;DHT22;6062;47.294;12.182;2022-12-18T01:42:37;-3.20;39.60
12006;DHT22;6062;47.294;12.182;2022-12-18T01:45:22;-3.10;39.60
12006;DHT22;6062;47.294;12.182;2022-12-18T01:47:53;-3.10;39.30
12006;DHT22;6062;47.294;12.182;2022-12-18T01:50:24;-3.10;39.50
12006;DHT22;6062;47.294;12.182;2022-12-18T01:55:51;-3.00;39.60
12006;DHT22;6062;47.294;12.182;2022-12-18T01:58:22;-3.00;39.70
12006;DHT22;6062;47.294;12.182;2022-12-18T02:00:54;-3.00;39.80
12006;DHT22;6062;47.294;12.182;2022-12-18T02:03:20;-3.00;39.60
12006;DHT22;6062;47.294;12.182;2022-12-18T02:08:36;-3.10;39.90
12006;DHT22;6062;47.294;12.182;2022-12-18T02:11:24;-3.10;39.80
12006;DHT22;6062;47.294;12.182;2022-12-18T02:17:12;-3.10;40.00
12006;DHT22;6062;47.294;12.182;2022-12-18T02:23:01;-3.10;39.70
12006;DHT22;6062;47.294;12.182;2022-12-18T02:26:06;-3.10;39.60
12006;DHT22;6062;47.294;12.182;2022-12-18T02:28:49;-3.10;38.90
12006;DHT22;6062;47.294;12.182;2022-12-18T02:31:25;-3.10;39.20
12006;DHT22;6062;47.294;12.182;2022-12-18T02:33:56;-3.10;39.20
12006;DHT22;6062;47.294;12.182;2022-12-18T02:36:27;-3.10;39.20
12006;DHT22;6062;47.294;12.182;2022-12-18T02:38:55;-3.10;39.50
12006;DHT22;6062;47.294;12.182;2022-12-18T02:41:22;-3.00;39.50
12006;DHT22;6062;47.294;12.182;2022-12-18T02:43:56;-3.00;39.30
12006;DHT22;6062;47.294;12.182;2022-12-18T02:46:41;-3.00;39.30
12006;DHT22;6062;47.294;12.182;2022-12-18T02:49:36;-3.00;38.80
12006;DHT22;6062;47.294;12.182;2022-12-18T02:58:00;-2.90;38.00
12006;DHT22;6062;47.294;12.182;2022-12-18T03:00:58;-2.90;37.70
12006;DHT22;6062;47.294;12.182;2022-12-18T03:03:31;-2.90;37.80
12006;DHT22;6062;47.294;12.182;2022-12-18T03:06:30;-2.90;37.90
12006;DHT22;6062;47.294;12.182;2022-12-18T03:09:04;-2.90;38.00
12006;DHT22;6062;47.294;12.182;2022-12-18T03:11:40;-2.90;38.10
12006;DHT22;6062;47.294;12.182;2022-12-18T03:14:29;-3.00;37.90
12006;DHT22;6062;47.294;12.182;2022-12-18T03:17:01;-3.00;38.00
12006;DHT22;6062;47.294;12.182;2022-12-18T03:19:32;-3.00;38.30
12006;DHT22;6062;47.294;12.182;2022-12-18T03:22:02;-3.10;38.40
12006;DHT22;6062;47.294;12.182;2022-12-18T03:24:31;-3.10;38.40
12006;DHT22;6062;47.294;12.182;2022-12-18T03:27:01;-3.10;38.40
12006;DHT22;6062;47.294;12.182;2022-12-18T03:29:35;-3.10;38.60
12006;DHT22;6062;47.294;12.182;2022-12-18T03:32:12;-3.10;38.80
12006;DHT22;6062;47.294;12.182;2022-12-18T03:34:49;-3.10;38.70
12006;DHT22;6062;47.294;12.182;2022-12-18T03:37:17;-3.10;38.70
12006;DHT22;6062;47.294;12.182;2022-12-18T03:39:42;-3.10;38.70
12006;DHT22;6062;47.294;12.182;2022-12-18T03:48:05;-3.10;39.30
12006;DHT22;6062;47.294;12.182;2022-12-18T03:51:06;-3.20;39.20
12006;DHT22;6062;47.294;12.182;2022-12-18T03:53:48;-3.10;39.20
12006;DHT22;6062;47.294;12.182;2022-12-18T03:56:21;-3.10;39.30
12006;DHT22;6062;47.294;12.182;2022-12-18T03:58:50;-3.10;39.40
12006;DHT22;6062;47.294;12.182;2022-12-18T04:01:19;-3.10;39.20
12006;DHT22;6062;47.294;12.182;2022-12-18T04:03:49;-3.10;39.20
12006;DHT22;6062;47.294;12.182;2022-12-18T04:06:17;-3.10;39.30
12006;DHT22;6062;47.294;12.182;2022-12-18T04:08:43;-3.10;39.80
12006;DHT22;6062;47.294;12.182;2022-12-18T04:11:10;-3.00;39.90
12006;DHT22;6062;47.294;12.182;2022-12-18T04:13:37;-3.00;39.50
12006;DHT22;6062;47.294;12.182;2022-12-18T04:16:03;-3.00;39.70
12006;DHT22;6062;47.294;12.182;2022-12-18T04:18:30;-2.90;40.00
12006;DHT22;6062;47.294;12.182;2022-12-18T04:20:55;-2.90;40.00
12006;DHT22;6062;47.294;12.182;2022-12-18T04:23:21;-2.90;40.10
12006;DHT22;6062;47.294;12.182;2022-12-18T04:25:48;-2.80;40.30
12006;DHT22;6062;47.294;12.182;2022-12-18T04:28:14;-2.80;40.50
12006;DHT22;6062;47.294;12.182;2022-12-18T04:30:39;-2.70;40.50
12006;DHT22;6062;47.294;12.182;2022-12-18T04:33:10;-2.70;40.70
12006;DHT22;6062;47.294;12.182;2022-12-18T04:35:37;-2.70;40.30
12006;DHT22;6062;47.294;12.182;2022-12-18T04:38:02;-2.70;40.00
12006;DHT22;6062;47.294;12.182;2022-12-18T04:40:28;-2.60;40.00
12006;DHT22;6062;47.294;12.182;2022-12-18T04:42:54;-2.60;40.30
12006;DHT22;6062;47.294;12.182;2022-12-18T04:45:19;-2.60;40.60
12006;DHT22;6062;47.294;12.182;2022-12-18T04:47:45;-2.50;40.60
12006;DHT22;6062;47.294;12.182;2022-12-18T04:50:11;-2.50;40.80
12006;DHT22;6062;47.294;12.182;2022-12-18T04:52:36;-2.40;41.30
12006;DHT22;6062;47.294;12.182;2022-12-18T04:55:02;-2.40;41.00
12006;DHT22;6062;47.294;12.182;2022-12-18T04:57:28;-2.30;41.30
12006;DHT22;6062;47.294;12.182;2022-12-18T04:59:54;-2.30;41.40
12006;DHT22;6062;47.294;12.182;2022-12-18T05:02:19;-2.30;41.40
12006;DHT22;6062;47.294;12.182;2022-12-18T05:04:45;-2.20;41.40
12006;DHT22;6062;47.294;12.182;2022-12-18T05:07:11;-2.20;41.20
12006;DHT22;6062;47.294;12.182;2022-12-18T05:09:36;-2.20;41.20
12006;DHT22;6062;47.294;12.182;2022-12-18T05:12:02;-2.20;41.00
12006;DHT22;6062;47.294;12.182;2022-12-18T05:14:28;-2.10;40.70
12006;DHT22;6062;47.294;12.182;2022-12-18T05:16:54;-2.10;40.60
12006;DHT22;6062;47.294;12.182;2022-12-18T05:19:20;-2.10;40.70
12006;DHT22;6062;47.294;12.182;2022-12-18T05:21:46;-2.10;40.70
12006;DHT22;6062;47.294;12.182;2022-12-18T05:24:12;-2.10;40.70
12006;DHT22;6062;47.294;12.182;2022-12-18T05:26:37;-2.10;40.70
12006;DHT22;6062;47.294;12.182;2022-12-18T05:29:03;-2.10;40.20
12006;DHT22;6062;47.294;12.182;2022-12-18T05:31:29;-2.10;40.00
12006;DHT22;6062;47.294;12.182;2022-12-18T05:33:55;-2.10;39.80
12006;DHT22;6062;47.294;12.182;2022-12-18T05:36:20;-2.10;39.80
12006;DHT22;6062;47.294;12.182;2022-12-18T05:38:46;-2.10;39.60
12006;DHT22;6062;47.294;12.182;2022-12-18T05:41:12;-2.20;39.30
12006;DHT22;6062;47.294;12.182;2022-12-18T05:43:39;-2.20;39.30
12006;DHT22;6062;47.294;12.182;2022-12-18T05:46:07;-2.20;39.30
12006;DHT22;6062;47.294;12.182;2022-12-18T05:48:36;-2.30;39.30
12006;DHT22;6062;47.294;12.182;2022-12-18T05:51:09;-2.30;39.30
12006;DHT22;6062;47.294;12.182;2022-12-18T05:53:40;-2.40;39.20
12006;DHT22;6062;47.294;12.182;2022-12-18T05:56:10;-2.40;39.30
12006;DHT22;6062;47.294;12.182;2022-12-18T05:58:37;-2.50;39.20
12006;DHT22;6062;47.294;12.182;2022-12-18T06:01:08;-2.50;39.80
12006;DHT22;6062;47.294;12.182;2022-12-18T06:03:39;-2.60;39.10
12006;DHT22;6062;47.294;12.182;2022-12-18T06:06:13;-2.60;39.20
12006;DHT22;6062;47.294;12.182;2022-12-18T06:08:39;-2.70;39.10
12006;DHT22;6062;47.294;12.182;2022-12-18T06:11:05;-2.70;39.40
12006;DHT22;6062;47.294;12.182;2022-12-18T06:13:30;-2.70;39.50
12006;DHT22;6062;47.294;12.182;2022-12-18T06:15:56;-2.80;39.60
12006;DHT22;6062;47.294;12.182;2022-12-18T06:18:22;-2.80;39.60
12006;DHT22;6062;47.294;12.182;2022-12-18T06:20:55;-2.80;39.60
12006;DHT22;6062;47.294;12.182;2022-12-18T06:23:21;-2.80;39.80
12006;DHT22;6062;47.294;12.182;2022-12-18T06:25:47;-2.80;40.00
12006;DHT22;6062;47.294;12.182;2022-12-18T06:28:13;-2.80;40.00
12006;DHT22;6062;47.294;12.182;2022-12-18T06:30:39;-2.80;39.90
12006;DHT22;6062;47.294;12.182;2022-12-18T06:33:04;-2.70;39.90
12006;DHT22;6062;47.294;12.182;2022-12-18T06:35:31;-2.70;39.90
12006;DHT22;6062;47.294;12.182;2022-12-18T06:37:57;-2.70;39.70
12006;DHT22;6062;47.294;12.182;2022-12-18T06:40:23;-2.70;39.90
12006;DHT22;6062;47.294;12.182;2022-12-18T06:42:48;-2.60;40.00
12006;DHT22;6062;47.294;12.182;2022-12-18T06:45:14;-2.60;39.90
12006;DHT22;6062;47.294;12.182;2022-12-18T06:47:40;-2.60;39.70
12006;DHT22;6062;47.294;12.182;2022-12-18T06:50:06;-2.60;39.70
12006;DHT22;6062;47.294;12.182;2022-12-18T06:52:32;-2.60;39.70
12006;DHT22;6062;47.294;12.182;2022-12-18T06:54:59;-2.60;39.90
12006;DHT22;6062;47.294;12.182;2022-12-18T06:57:25;-2.60;40.00
12006;DHT22;6062;47.294;12.182;2022-12-18T06:59:51;-2.60;40.10
12006;DHT22;6062;47.294;12.182;2022-12-18T07:02:17;-2.60;40.20
12006;DHT22;6062;47.294;12.182;2022-12-18T07:04:42;-2.60;40.10
12006;DHT22;6062;47.294;12.182;2022-12-18T07:07:08;-2.50;40.40
12006;DHT22;6062;47.294;12.182;2022-12-18T07:09:34;-2.50;40.50
12006;DHT22;6062;47.294;12.182;2022-12-18T07:11:59;-2.50;40.60
12006;DHT22;6062;47.294;12.182;2022-12-18T07:14:25;-2.50;40.70
12006;DHT22;6062;47.294;12.182;2022-12-18T07:16:51;-2.40;40.80
12006;DHT22;6062;47.294;12.182;2022-12-18T07:19:16;-2.40;41.00
12006;DHT22;6062;47.294;12.182;2022-12-18T07:21:42;-2.40;40.90
12006;DHT22;6062;47.294;12.182;2022-12-18T07:24:08;-2.30;40.80
12006;DHT22;6062;47.294;12.182;2022-12-18T07:26:33;-2.30;40.80
12006;DHT22;6062;47.294;12.182;2022-12-18T07:28:59;-2.20;40.70
12006;DHT22;6062;47.294;12.182;2022-12-18T07:31:25;-2.20;40.90
12006;DHT22;6062;47.294;12.182;2022-12-18T07:33:52;-2.20;41.20
12006;DHT22;6062;47.294;12.182;2022-12-18T07:36:18;-2.10;41.50
12006;DHT22;6062;47.294;12.182;2022-12-18T07:38:49;-2.10;41.70
12006;DHT22;6062;47.294;12.182;2022-12-18T07:41:15;-2.00;41.70
12006;DHT22;6062;47.294;12.182;2022-12-18T07:43:42;-2.00;41.40
12006;DHT22;6062;47.294;12.182;2022-12-18T07:46:08;-1.90;40.90
12006;DHT22;6062;47.294;12.182;2022-12-18T07:48:35;-1.90;40.40
12006;DHT22;6062;47.294;12.182;2022-12-18T07:51:05;-1.80;40.40
12006;DHT22;6062;47.294;12.182;2022-12-18T07:53:33;-1.80;40.50
12006;DHT22;6062;47.294;12.182;2022-12-18T07:56:05;-1.70;40.40
12006;DHT22;6062;47.294;12.182;2022-12-18T07:58:35;-1.70;40.50
12006;DHT22;6062;47.294;12.182;2022-12-18T08:03:31;-1.50;40.80
12006;DHT22;6062;47.294;12.182;2022-12-18T08:06:05;-1.50;41.10
12006;DHT22;6062;47.294;12.182;2022-12-18T08:08:33;-1.40;41.20
12006;DHT22;6062;47.294;12.182;2022-12-18T08:10:59;-1.20;42.30
12006;DHT22;6062;47.294;12.182;2022-12-18T08:13:26;-0.90;43.80
12006;DHT22;6062;47.294;12.182;2022-12-18T08:16:00;-0.40;45.00
12006;DHT22;6062;47.294;12.182;2022-12-18T08:18:28;0.20;45.60
12006;DHT22;6062;47.294;12.182;2022-12-18T08:20:55;1.00;46.30
12006;DHT22;6062;47.294;12.182;2022-12-18T08:23:21;1.90;47.40
12006;DHT22;6062;47.294;12.182;2022-12-18T08:25:47;2.90;46.50
12006;DHT22;6062;47.294;12.182;2022-12-18T08:28:13;4.00;45.30
12006;DHT22;6062;47.294;12.182;2022-12-18T08:30:41;5.10;44.00
12006;DHT22;6062;47.294;12.182;2022-12-18T08:33:07;6.20;43.60
12006;DHT22;6062;47.294;12.182;2022-12-18T08:35:36;7.20;41.40
12006;DHT22;6062;47.294;12.182;2022-12-18T08:38:02;8.20;39.20
12006;DHT22;6062;47.294;12.182;2022-12-18T08:40:28;9.20;38.30
12006;DHT22;6062;47.294;12.182;2022-12-18T08:42:54;10.20;36.90
12006;DHT22;6062;47.294;12.182;2022-12-18T08:45:39;11.00;35.60
12006;DHT22;6062;47.294;12.182;2022-12-18T08:48:04;12.00;34.30
12006;DHT22;6062;47.294;12.182;2022-12-18T08:50:30;12.70;32.80
12006;DHT22;6062;47.294;12.182;2022-12-18T08:52:56;13.40;31.90
12006;DHT22;6062;47.294;12.182;2022-12-18T08:55:21;14.10;30.70
12006;DHT22;6062;47.294;12.182;2022-12-18T08:57:50;14.80;30.00
12006;DHT22;6062;47.294;12.182;2022-12-18T09:00:16;15.30;28.90
12006;DHT22;6062;47.294;12.182;2022-12-18T09:02:42;15.80;28.10
12006;DHT22;6062;47.294;12.182;2022-12-18T09:05:08;16.30;27.30
12006;DHT22;6062;47.294;12.182;2022-12-18T09:07:34;16.70;27.00
12006;DHT22;6062;47.294;12.182;2022-12-18T09:09:59;17.10;26.70
12006;DHT22;6062;47.294;12.182;2022-12-18T09:12:25;17.50;26.20
12006;DHT22;6062;47.294;12.182;2022-12-18T09:14:51;17.90;25.90
12006;DHT22;6062;47.294;12.182;2022-12-18T09:17:16;18.30;25.10
12006;DHT22;6062;47.294;12.182;2022-12-18T09:19:42;18.60;25.10
12006;DHT22;6062;47.294;12.182;2022-12-18T09:22:08;18.90;25.10
12006;DHT22;6062;47.294;12.182;2022-12-18T09:24:35;19.30;24.90
12006;DHT22;6062;47.294;12.182;2022-12-18T09:27:00;19.60;23.80
12006;DHT22;6062;47.294;12.182;2022-12-18T09:29:26;19.90;23.50
12006;DHT22;6062;47.294;12.182;2022-12-18T09:31:52;20.20;23.70
12006;DHT22;6062;47.294;12.182;2022-12-18T09:34:17;20.50;23.10
12006;DHT22;6062;47.294;12.182;2022-12-18T09:36:46;20.70;22.60
12006;DHT22;6062;47.294;12.182;2022-12-18T09:39:12;21.00;22.50
12006;DHT22;6062;47.294;12.182;2022-12-18T09:41:55;21.20;22.30
12006;DHT22;6062;47.294;12.182;2022-12-18T09:47:27;21.70;21.60
12006;DHT22;6062;47.294;12.182;2022-12-18T09:50:02;22.00;20.80
12006;DHT22;6062;47.294;12.182;2022-12-18T09:52:40;22.20;21.40
12006;DHT22;6062;47.294;12.182;2022-12-18T09:55:30;22.40;20.50
12006;DHT22;6062;47.294;12.182;2022-12-18T09:58:26;22.60;19.80
12006;DHT22;6062;47.294;12.182;2022-12-18T10:00:56;22.70;19.10
12006;DHT22;6062;47.294;12.182;2022-12-18T10:03:22;22.90;20.10
12006;DHT22;6062;47.294;12.182;2022-12-18T10:06:15;22.90;20.20
12006;DHT22;6062;47.294;12.182;2022-12-18T10:12:14;23.20;19.80
12006;DHT22;6062;47.294;12.182;2022-12-18T10:18:15;23.40;20.10
12006;DHT22;6062;47.294;12.182;2022-12-18T10:20:53;23.50;19.60
12006;DHT22;6062;47.294;12.182;2022-12-18T10:23:34;23.60;19.70
12006;DHT22;6062;47.294;12.182;2022-12-18T10:26:12;23.70;19.20
12006;DHT22;6062;47.294;12.182;2022-12-18T10:28:39;23.80;19.30
12006;DHT22;6062;47.294;12.182;2022-12-18T10:31:28;23.80;19.00
12006;DHT22;6062;47.294;12.182;2022-12-18T10:33:55;23.80;19.00
12006;DHT22;6062;47.294;12.182;2022-12-18T10:36:22;23.90;18.80
12006;DHT22;6062;47.294;12.182;2022-12-18T10:38:49;24.00;18.90
12006;DHT22;6062;47.294;12.182;2022-12-18T10:43:44;24.00;18.70
12006;DHT22;6062;47.294;12.182;2022-12-18T10:51:27;24.10;18.30
12006;DHT22;6062;47.294;12.182;2022-12-18T10:54:12;24.10;17.50
12006;DHT22;6062;47.294;12.182;2022-12-18T10:56:41;24.10;17.30
12006;DHT22;6062;47.294;12.182;2022-12-18T10:59:09;24.10;18.10
12006;DHT22;6062;47.294;12.182;2022-12-18T11:01:50;24.00;17.80
12006;DHT22;6062;47.294;12.182;2022-12-18T11:04:27;24.00;17.20
12006;DHT22;6062;47.294;12.182;2022-12-18T11:07:03;24.00;17.90
12006;DHT22;6062;47.294;12.182;2022-12-18T11:09:34;24.00;17.50
12006;DHT22;6062;47.294;12.182;2022-12-18T11:12:19;24.00;17.80
12006;DHT22;6062;47.294;12.182;2022-12-18T11:14:49;24.00;17.60
12006;DHT22;6062;47.294;12.182;2022-12-18T11:17:37;24.00;17.50
12006;DHT22;6062;47.294;12.182;2022-12-18T11:20:27;24.00;17.60
12006;DHT22;6062;47.294;12.182;2022-12-18T11:23:03;24.00;17.50
12006;DHT22;6062;47.294;12.182;2022-12-18T11:25:32;24.00;17.60
12006;DHT22;6062;47.294;12.182;2022-12-18T11:28:25;24.00;17.50
12006;DHT22;6062;47.294;12.182;2022-12-18T11:31:09;23.90;17.20
12006;DHT22;6062;47.294;12.182;2022-12-18T11:36:43;23.80;17.40
12006;DHT22;6062;47.294;12.182;2022-12-18T11:39:24;23.80;17.30
12006;DHT22;6062;47.294;12.182;2022-12-18T11:42:09;23.70;16.90
12006;DHT22;6062;47.294;12.182;2022-12-18T11:53:18;23.30;16.20
12006;DHT22;6062;47.294;12.182;2022-12-18T11:58:47;23.10;17.10
12006;DHT22;6062;47.294;12.182;2022-12-18T12:04:57;22.90;16.20
12006;DHT22;6062;47.294;12.182;2022-12-18T12:07:50;22.80;16.30
12006;DHT22;6062;47.294;12.182;2022-12-18T12:10:32;22.70;16.20
12006;DHT22;6062;47.294;12.182;2022-12-18T12:24:01;22.30;16.10
12006;DHT22;6062;47.294;12.182;2022-12-18T12:27:09;22.10;15.10
12006;DHT22;6062;47.294;12.182;2022-12-18T12:29:49;21.90;15.70
12006;DHT22;6062;47.294;12.182;2022-12-18T12:38:41;21.10;16.40
12006;DHT22;6062;47.294;12.182;2022-12-18T12:41:18;20.80;16.70
12006;DHT22;6062;47.294;12.182;2022-12-18T12:44:12;20.40;16.50
12006;DHT22;6062;47.294;12.182;2022-12-18T12:46:43;19.90;16.30
12006;DHT22;6062;47.294;12.182;2022-12-18T12:49:15;19.40;16.60
12006;DHT22;6062;47.294;12.182;2022-12-18T12:51:58;18.90;16.80
12006;DHT22;6062;47.294;12.182;2022-12-18T12:54:32;18.30;16.90
12006;DHT22;6062;47.294;12.182;2022-12-18T12:57:15;17.70;17.20
12006;DHT22;6062;47.294;12.182;2022-12-18T12:59:58;17.10;17.80
12006;DHT22;6062;47.294;12.182;2022-12-18T13:02:46;16.40;18.20
12006;DHT22;6062;47.294;12.182;2022-12-18T13:08:07;15.00;18.40
12006;DHT22;6062;47.294;12.182;2022-12-18T13:10:38;14.30;18.40
12006;DHT22;6062;47.294;12.182;2022-12-18T13:13:13;13.70;18.50
12006;DHT22;6062;47.294;12.182;2022-12-18T13:16:10;13.00;19.00
12006;DHT22;6062;47.294;12.182;2022-12-18T13:18:36;12.30;19.80
12006;DHT22;6062;47.294;12.182;2022-12-18T13:21:26;11.80;20.30
12006;DHT22;6062;47.294;12.182;2022-12-18T13:23:54;11.20;20.40
12006;DHT22;6062;47.294;12.182;2022-12-18T13:28:53;10.10;21.00
12006;DHT22;6062;47.294;12.182;2022-12-18T13:34:22;9.20;21.60
12006;DHT22;6062;47.294;12.182;2022-12-18T13:36:50;8.80;21.30
12006;DHT22;6062;47.294;12.182;2022-12-18T13:42:37;8.00;22.70
12006;DHT22;6062;47.294;12.182;2022-12-18T13:44:55;7.70;23.50
12006;DHT22;6062;47.294;12.182;2022-12-18T13:47:33;7.30;23.50
12006;DHT22;6062;47.294;12.182;2022-12-18T13:50:24;7.00;23.10
12006;DHT22;6062;47.294;12.182;2022-12-18T13:52:51;6.70;22.90
12006;DHT22;6062;47.294;12.182;2022-12-18T13:55:19;6.50;22.80
12006;DHT22;6062;47.294;12.182;2022-12-18T13:57:46;6.20;22.90
12006;DHT22;6062;47.294;12.182;2022-12-18T14:00:29;6.00;23.20
12006;DHT22;6062;47.294;12.182;2022-12-18T14:02:56;5.70;23.50
12006;DHT22;6062;47.294;12.182;2022-12-18T14:05:30;5.50;23.60
12006;DHT22;6062;47.294;12.182;2022-12-18T14:08:05;5.30;23.90
12006;DHT22;6062;47.294;12.182;2022-12-18T14:10:47;5.10;24.00
12006;DHT22;6062;47.294;12.182;2022-12-18T14:13:41;5.00;24.40
12006;DHT22;6062;47.294;12.182;2022-12-18T14:16:11;4.80;24.90
12006;DHT22;6062;47.294;12.182;2022-12-18T14:18:55;4.70;25.00
12006;DHT22;6062;47.294;12.182;2022-12-18T14:21:26;4.50;25.10
12006;DHT22;6062;47.294;12.182;2022-12-18T14:26:45;4.20;25.30
12006;DHT22;6062;47.294;12.182;2022-12-18T14:29:19;4.10;25.30
12006;DHT22;6062;47.294;12.182;2022-12-18T14:32:16;3.90;25.40
12006;DHT22;6062;47.294;12.182;2022-12-18T14:34:48;3.80;25.80
12006;DHT22;6062;47.294;12.182;2022-12-18T14:37:17;3.70;25.90
12006;DHT22;6062;47.294;12.182;2022-12-18T14:40:01;3.60;25.90
12006;DHT22;6062;47.294;12.182;2022-12-18T14:42:43;3.40;26.00
12006;DHT22;6062;47.294;12.182;2022-12-18T14:45:34;3.40;25.90
12006;DHT22;6062;47.294;12.182;2022-12-18T14:50:37;3.10;25.80
12006;DHT22;6062;47.294;12.182;2022-12-18T14:53:03;3.00;25.90
12006;DHT22;6062;47.294;12.182;2022-12-18T14:55:29;2.90;25.80
12006;DHT22;6062;47.294;12.182;2022-12-18T14:57:56;2.80;25.80
12006;DHT22;6062;47.294;12.182;2022-12-18T15:00:24;2.70;26.00
12006;DHT22;6062;47.294;12.182;2022-12-18T15:02:53;2.60;26.20
12006;DHT22;6062;47.294;12.182;2022-12-18T15:05:28;2.50;26.30
12006;DHT22;6062;47.294;12.182;2022-12-18T15:07:59;2.40;26.60
12006;DHT22;6062;47.294;12.182;2022-12-18T15:10:31;2.40;26.90
12006;DHT22;6062;47.294;12.182;2022-12-18T15:20:52;2.00;28.10
12006;DHT22;6062;47.294;12.182;2022-12-18T15:26:15;1.90;28.50
12006;DHT22;6062;47.294;12.182;2022-12-18T15:28:53;1.90;28.90
12006;DHT22;6062;47.294;12.182;2022-12-18T15:31:33;1.80;29.30
12006;DHT22;6062;47.294;12.182;2022-12-18T15:34:19;1.80;29.50
12006;DHT22;6062;47.294;12.182;2022-12-18T15:36:46;1.80;29.20
12006;DHT22;6062;47.294;12.182;2022-12-18T15:39:12;1.70;29.10
12006;DHT22;6062;47.294;12.182;2022-12-18T15:41:38;1.70;29.10
12006;DHT22;6062;47.294;12.182;2022-12-18T15:44:36;1.70;29.30
12006;DHT22;6062;47.294;12.182;2022-12-18T15:47:02;1.60;29.80
12006;DHT22;6062;47.294;12.182;2022-12-18T15:49:28;1.60;30.10
12006;DHT22;6062;47.294;12.182;2022-12-18T15:51:57;1.50;30.20
12006;DHT22;6062;47.294;12.182;2022-12-18T15:54:24;1.50;29.90
12006;DHT22;6062;47.294;12.182;2022-12-18T15:57:12;1.50;29.80
12006;DHT22;6062;47.294;12.182;2022-12-18T15:59:55;1.40;29.90
12006;DHT22;6062;47.294;12.182;2022-12-18T16:02:24;1.40;30.10
12006;DHT22;6062;47.294;12.182;2022-12-18T16:04:51;1.30;30.30
12006;DHT22;6062;47.294;12.182;2022-12-18T16:07:18;1.20;30.40
12006;DHT22;6062;47.294;12.182;2022-12-18T16:09:44;1.20;31.10
12006;DHT22;6062;47.294;12.182;2022-12-18T16:12:16;1.20;31.10
12006;DHT22;6062;47.294;12.182;2022-12-18T16:14:50;1.20;31.50
12006;DHT22;6062;47.294;12.182;2022-12-18T16:17:16;1.20;31.50
12006;DHT22;6062;47.294;12.182;2022-12-18T16:19:43;1.20;31.80
12006;DHT22;6062;47.294;12.182;2022-12-18T16:22:21;1.20;31.70
12006;DHT22;6062;47.294;12.182;2022-12-18T16:24:49;1.20;31.50
12006;DHT22;6062;47.294;12.182;2022-12-18T16:27:16;1.20;31.50
12006;DHT22;6062;47.294;12.182;2022-12-18T16:29:41;1.20;31.50
12006;DHT22;6062;47.294;12.182;2022-12-18T16:32:14;1.10;31.00
12006;DHT22;6062;47.294;12.182;2022-12-18T16:34:45;1.10;30.70
12006;DHT22;6062;47.294;12.182;2022-12-18T16:37:13;1.10;30.70
12006;DHT22;6062;47.294;12.182;2022-12-18T16:39:41;1.10;30.80
12006;DHT22;6062;47.294;12.182;2022-12-18T16:42:17;1.10;30.70
12006;DHT22;6062;47.294;12.182;2022-12-18T16:44:45;1.10;30.70
12006;DHT22;6062;47.294;12.182;2022-12-18T16:47:12;1.10;30.60
12006;DHT22;6062;47.294;12.182;2022-12-18T16:49:39;1.10;30.70
12006;DHT22;6062;47.294;12.182;2022-12-18T16:52:05;1.10;30.70
12006;DHT22;6062;47.294;12.182;2022-12-18T16:54:31;1.10;30.80
12006;DHT22;6062;47.294;12.182;2022-12-18T16:56:59;1.10;30.80
12006;DHT22;6062;47.294;12.182;2022-12-18T16:59:25;1.10;31.10
12006;DHT22;6062;47.294;12.182;2022-12-18T17:01:52;1.10;31.00
12006;DHT22;6062;47.294;12.182;2022-12-18T17:04:17;1.10;31.40
12006;DHT22;6062;47.294;12.182;2022-12-18T17:06:45;1.10;31.80
12006;DHT22;6062;47.294;12.182;2022-12-18T17:09:18;1.00;31.70
12006;DHT22;6062;47.294;12.182;2022-12-18T17:11:50;1.00;31.70
12006;DHT22;6062;47.294;12.182;2022-12-18T17:14:19;1.00;31.90
12006;DHT22;6062;47.294;12.182;2022-12-18T17:16:47;1.00;32.00
12006;DHT22;6062;47.294;12.182;2022-12-18T17:19:14;1.00;32.30
12006;DHT22;6062;47.294;12.182;2022-12-18T17:21:42;1.10;32.50
12006;DHT22;6062;47.294;12.182;2022-12-18T17:24:09;1.10;32.60
12006;DHT22;6062;47.294;12.182;2022-12-18T17:26:35;1.10;33.30
12006;DHT22;6062;47.294;12.182;2022-12-18T17:29:01;1.10;33.50
12006;DHT22;6062;47.294;12.182;2022-12-18T17:31:28;1.10;33.50
12006;DHT22;6062;47.294;12.182;2022-12-18T17:33:55;1.20;33.70
12006;DHT22;6062;47.294;12.182;2022-12-18T17:36:22;1.20;33.80
12006;DHT22;6062;47.294;12.182;2022-12-18T17:38:54;1.20;33.90
12006;DHT22;6062;47.294;12.182;2022-12-18T17:41:22;1.20;33.80
12006;DHT22;6062;47.294;12.182;2022-12-18T17:44:00;1.20;33.70
12006;DHT22;6062;47.294;12.182;2022-12-18T17:46:29;1.30;33.80